createdAt,value
2017-12-28T00:00:40.125Z,70.97
2017-12-28T00:01:40.088Z,70.11
2017-12-28T00:02:40.045Z,70.11
2017-12-28T00:03:40.000Z,69.92
2017-12-28T00:04:39.957Z,70.11
2017-12-28T00:05:39.913Z,70.01
2017-12-28T00:06:39.874Z,70.30
2017-12-28T00:07:39.831Z,69.73
2017-12-28T00:08:39.790Z,68.98
2017-12-28T00:09:39.750Z,68.88
2017-12-28T00:10:39.707Z,68.12
2017-12-28T00:11:39.672Z,68.40
2017-12-28T00:12:39.625Z,68.98
2017-12-28T00:13:39.585Z,68.98
2017-12-28T00:14:39.548Z,68.69
2017-12-28T00:15:39.498Z,68.69
2017-12-28T00:16:39.460Z,68.40
2017-12-28T00:17:39.415Z,67.65
2017-12-28T00:18:39.373Z,66.60
2017-12-28T00:19:39.361Z,66.89
2017-12-28T00:20:39.287Z,66.80
2017-12-28T00:21:39.249Z,65.94
2017-12-28T00:22:39.213Z,66.13
2017-12-28T00:23:39.165Z,65.19
2017-12-28T00:24:39.129Z,64.71
2017-12-28T00:25:39.082Z,65.47
2017-12-28T00:26:39.040Z,64.33
2017-12-28T00:27:38.995Z,64.90
2017-12-28T00:28:38.958Z,64.23
2017-12-28T00:29:38.921Z,63.57
2017-12-28T00:30:38.872Z,64.61
2017-12-28T00:31:38.834Z,63.67
2017-12-28T00:32:38.788Z,64.42
2017-12-28T00:33:38.749Z,63.85
2017-12-28T00:34:38.711Z,64.61
2017-12-28T00:35:38.660Z,64.14
2017-12-28T00:36:38.621Z,63.95
2017-12-28T00:37:38.584Z,64.71
2017-12-28T00:38:38.541Z,65.19
2017-12-28T00:39:38.491Z,64.81
2017-12-28T00:40:38.465Z,63.95
2017-12-28T00:41:38.417Z,63.76
2017-12-28T00:42:38.368Z,63.57
2017-12-28T00:43:38.392Z,63.10
2017-12-28T00:44:38.285Z,63.48
2017-12-28T00:45:38.252Z,63.76
2017-12-28T00:46:38.207Z,63.29
2017-12-28T00:47:38.197Z,62.62
2017-12-28T00:48:38.122Z,62.72
2017-12-28T00:49:38.077Z,63.39
2017-12-28T00:50:38.051Z,62.91
2017-12-28T00:51:37.994Z,62.05
2017-12-28T00:52:37.951Z,61.87
2017-12-28T00:53:37.916Z,62.05
2017-12-28T00:54:37.872Z,62.53
2017-12-28T00:55:37.831Z,62.24
2017-12-28T00:56:37.786Z,61.96
2017-12-28T00:57:37.742Z,61.87
2017-12-28T00:58:37.700Z,61.30
2017-12-28T00:59:37.660Z,61.68
2017-12-28T01:00:37.616Z,61.77
2017-12-28T01:01:37.597Z,61.87
2017-12-28T01:02:37.532Z,61.40
2017-12-28T01:03:37.491Z,61.49
2017-12-28T01:04:37.451Z,62.05
2017-12-28T01:05:37.409Z,62.24
2017-12-28T01:06:37.368Z,61.77
2017-12-28T01:07:37.352Z,61.11
2017-12-28T01:08:37.282Z,61.77
2017-12-28T01:09:37.247Z,61.68
2017-12-28T01:10:37.230Z,62.43
2017-12-28T01:11:37.162Z,62.43
2017-12-28T01:12:37.120Z,62.34
2017-12-28T01:13:37.073Z,63.39
2017-12-28T01:14:37.042Z,64.23
2017-12-28T01:15:36.988Z,65.28
2017-12-28T01:16:36.952Z,65.66
2017-12-28T01:17:36.921Z,65.84
2017-12-28T01:18:36.882Z,66.41
2017-12-28T01:19:36.835Z,66.03
2017-12-28T01:20:36.787Z,66.70
2017-12-28T01:21:36.749Z,66.22
2017-12-28T01:22:36.761Z,66.13
2017-12-28T01:23:36.656Z,66.70
2017-12-28T01:24:36.614Z,66.89
2017-12-28T01:25:36.571Z,66.60
2017-12-28T01:26:36.530Z,67.83
2017-12-28T01:27:36.495Z,68.21
2017-12-28T01:28:36.446Z,68.79
2017-12-28T01:29:36.411Z,68.50
2017-12-28T01:30:36.361Z,68.59
2017-12-28T01:31:36.332Z,69.17
2017-12-28T01:32:36.313Z,69.17
2017-12-28T01:33:36.236Z,69.82
2017-12-28T01:34:36.204Z,70.34
2017-12-28T01:35:36.155Z,69.82
2017-12-28T01:36:36.114Z,69.67
2017-12-28T01:37:36.072Z,69.82
2017-12-28T01:38:36.038Z,69.29
2017-12-28T01:39:35.993Z,68.69
2017-12-28T01:40:35.945Z,68.98
2017-12-28T01:41:35.908Z,68.31
2017-12-28T01:42:35.880Z,68.31
2017-12-28T01:43:35.828Z,68.54
2017-12-28T01:44:35.780Z,69.01
2017-12-28T01:45:35.742Z,71.00
2017-12-28T01:46:35.700Z,71.28
2017-12-28T01:47:35.656Z,72.71
2017-12-28T01:48:35.620Z,72.33
2017-12-28T01:49:35.573Z,72.42
2017-12-28T01:50:35.548Z,72.42
2017-12-28T01:51:35.489Z,72.61
2017-12-28T01:52:35.452Z,71.81
2017-12-28T01:53:35.416Z,71.38
2017-12-28T01:54:35.374Z,70.53
2017-12-28T01:55:35.326Z,70.34
2017-12-28T01:56:35.288Z,69.96
2017-12-28T01:57:35.240Z,71.19
2017-12-28T01:58:35.225Z,70.72
2017-12-28T01:59:35.160Z,71.85
2017-12-28T02:00:35.116Z,71.66
2017-12-28T02:01:35.077Z,72.14
2017-12-28T02:02:35.035Z,73.27
2017-12-28T02:03:34.993Z,73.56
2017-12-28T02:04:34.949Z,74.88
2017-12-28T02:05:34.908Z,75.64
2017-12-28T02:06:34.873Z,75.74
2017-12-28T02:07:34.825Z,76.31
2017-12-28T02:08:34.785Z,74.79
2017-12-28T02:09:34.743Z,75.17
2017-12-28T02:10:34.706Z,74.88
2017-12-28T02:11:34.670Z,74.13
2017-12-28T02:12:34.619Z,73.37
2017-12-28T02:13:34.580Z,72.42
2017-12-28T02:14:34.535Z,71.76
2017-12-28T02:15:34.497Z,71.28
2017-12-28T02:16:34.452Z,71.28
2017-12-28T02:17:34.412Z,71.47
2017-12-28T02:18:34.371Z,72.14
2017-12-28T02:19:34.332Z,72.23
2017-12-28T02:20:34.328Z,71.95
2017-12-28T02:21:34.265Z,71.38
2017-12-28T02:22:34.201Z,71.38
2017-12-28T02:23:34.180Z,71.19
2017-12-28T02:24:34.120Z,71.00
2017-12-28T02:25:34.077Z,71.38
2017-12-28T02:26:34.037Z,71.28
2017-12-28T02:27:34.005Z,71.38
2017-12-28T02:28:33.960Z,71.57
2017-12-28T02:29:33.914Z,72.71
2017-12-28T02:30:33.873Z,72.71
2017-12-28T02:31:33.827Z,72.61
2017-12-28T02:32:33.792Z,72.99
2017-12-28T02:33:33.749Z,72.80
2017-12-28T02:34:33.707Z,73.37
2017-12-28T02:35:33.666Z,72.33
2017-12-28T02:36:33.624Z,72.52
2017-12-28T02:37:33.589Z,73.08
2017-12-28T02:38:33.541Z,72.52
2017-12-28T02:39:33.502Z,73.27
2017-12-28T02:40:33.458Z,74.51
2017-12-28T02:41:33.415Z,74.22
2017-12-28T02:42:33.382Z,73.94
2017-12-28T02:43:33.338Z,73.94
2017-12-28T02:44:33.295Z,73.65
2017-12-28T02:45:33.252Z,74.69
2017-12-28T02:46:33.210Z,75.07
2017-12-28T02:47:33.170Z,74.98
2017-12-28T02:48:33.132Z,74.13
2017-12-28T02:49:33.103Z,74.51
2017-12-28T02:50:33.047Z,74.51
2017-12-28T02:51:33.004Z,74.79
2017-12-28T02:52:32.964Z,74.03
2017-12-28T02:53:32.923Z,75.26
2017-12-28T02:54:32.880Z,75.17
2017-12-28T02:55:32.838Z,75.26
2017-12-28T02:56:32.799Z,75.74
2017-12-28T02:57:32.761Z,74.88
2017-12-28T02:58:32.718Z,74.98
2017-12-28T02:59:32.673Z,75.36
2017-12-28T03:00:32.633Z,74.22
2017-12-28T03:01:32.600Z,73.75
2017-12-28T03:02:32.553Z,74.41
2017-12-28T03:03:32.511Z,75.36
2017-12-28T03:04:32.471Z,76.50
2017-12-28T03:05:32.428Z,76.97
2017-12-28T03:06:32.385Z,77.06
2017-12-28T03:07:32.345Z,76.97
2017-12-28T03:08:32.303Z,76.97
2017-12-28T03:09:32.263Z,78.20
2017-12-28T03:10:32.219Z,77.45
2017-12-28T03:11:32.189Z,76.40
2017-12-28T03:12:32.151Z,76.44
2017-12-28T03:13:32.102Z,77.06
2017-12-28T03:14:32.057Z,77.20
2017-12-28T03:15:32.020Z,78.15
2017-12-28T03:16:31.978Z,78.72
2017-12-28T03:17:31.935Z,77.77
2017-12-28T03:18:31.895Z,77.54
2017-12-28T03:19:31.852Z,77.16
2017-12-28T03:20:31.809Z,76.97
2017-12-28T03:21:31.769Z,76.92
2017-12-28T03:22:31.726Z,77.83
2017-12-28T03:23:31.689Z,77.48
2017-12-28T03:24:31.647Z,78.34
2017-12-28T03:25:31.612Z,79.47
2017-12-28T03:26:31.564Z,80.04
2017-12-28T03:27:31.537Z,80.43
2017-12-28T03:28:31.484Z,80.33
2017-12-28T03:29:31.444Z,80.80
2017-12-28T03:30:31.398Z,81.37
2017-12-28T03:31:31.362Z,81.37
2017-12-28T03:32:31.325Z,81.37
2017-12-28T03:33:31.279Z,81.75
2017-12-28T03:34:31.240Z,81.47
2017-12-28T03:35:31.195Z,81.27
2017-12-28T03:36:31.158Z,81.27
2017-12-28T03:37:31.113Z,81.56
2017-12-28T03:38:31.079Z,82.70
2017-12-28T03:39:31.031Z,81.94
2017-12-28T03:40:30.993Z,82.04
2017-12-28T03:41:30.953Z,82.13
2017-12-28T03:42:30.909Z,82.13
2017-12-28T03:43:30.870Z,81.27
2017-12-28T03:44:30.826Z,81.18
2017-12-28T03:45:30.785Z,80.52
2017-12-28T03:46:30.746Z,80.52
2017-12-28T03:47:30.706Z,80.99
2017-12-28T03:48:30.664Z,81.18
2017-12-28T03:49:30.620Z,81.18
2017-12-28T03:50:30.580Z,81.75
2017-12-28T03:51:30.552Z,82.23
2017-12-28T03:52:30.498Z,82.60
2017-12-28T03:53:30.464Z,82.23
2017-12-28T03:54:30.456Z,81.85
2017-12-28T03:55:30.376Z,81.09
2017-12-28T03:56:30.338Z,81.37
2017-12-28T03:57:30.294Z,81.27
2017-12-28T03:58:30.253Z,80.52
2017-12-28T03:59:30.214Z,81.27
2017-12-28T04:00:30.172Z,81.37
2017-12-28T04:01:30.130Z,81.09
2017-12-28T04:02:30.095Z,81.47
2017-12-28T04:03:30.049Z,81.18
2017-12-28T04:04:30.011Z,81.27
2017-12-28T04:05:29.965Z,81.27
2017-12-28T04:06:29.926Z,81.27
2017-12-28T04:07:29.884Z,81.66
2017-12-28T04:08:29.843Z,81.56
2017-12-28T04:09:29.808Z,81.94
2017-12-28T04:10:29.763Z,81.66
2017-12-28T04:11:29.720Z,82.51
2017-12-28T04:12:29.682Z,82.79
2017-12-28T04:13:29.637Z,82.23
2017-12-28T04:14:29.600Z,82.23
2017-12-28T04:15:29.555Z,82.23
2017-12-28T04:16:29.514Z,82.42
2017-12-28T04:17:29.483Z,81.85
2017-12-28T04:18:29.435Z,81.27
2017-12-28T04:19:29.405Z,81.37
2017-12-28T04:20:29.351Z,80.52
2017-12-28T04:21:29.315Z,80.90
2017-12-28T04:22:29.294Z,80.62
2017-12-28T04:23:29.228Z,80.43
2017-12-28T04:24:29.186Z,80.71
2017-12-28T04:25:29.146Z,80.80
2017-12-28T04:26:29.104Z,80.52
2017-12-28T04:27:29.069Z,81.18
2017-12-28T04:28:29.025Z,81.37
2017-12-28T04:29:28.982Z,81.85
2017-12-28T04:30:28.944Z,81.75
2017-12-28T04:31:28.924Z,81.66
2017-12-28T04:32:28.868Z,81.85
2017-12-28T04:33:28.820Z,81.47
2017-12-28T04:34:28.785Z,81.47
2017-12-28T04:35:28.737Z,81.66
2017-12-28T04:36:28.694Z,81.94
2017-12-28T04:37:28.663Z,81.18
2017-12-28T04:38:28.613Z,81.75
2017-12-28T04:39:28.572Z,81.27
2017-12-28T04:40:28.536Z,81.56
2017-12-28T04:41:28.490Z,82.60
2017-12-28T04:42:28.447Z,81.27
2017-12-28T04:43:28.409Z,81.18
2017-12-28T04:44:28.368Z,80.90
2017-12-28T04:45:28.328Z,80.62
2017-12-28T04:46:28.281Z,79.85
2017-12-28T04:47:28.246Z,79.47
2017-12-28T04:48:28.205Z,80.04
2017-12-28T04:49:28.165Z,80.33
2017-12-28T04:50:28.119Z,80.52
2017-12-28T04:51:28.080Z,80.52
2017-12-28T04:52:28.041Z,80.71
2017-12-28T04:53:28.010Z,79.95
2017-12-28T04:54:27.957Z,80.04
2017-12-28T04:55:27.916Z,79.95
2017-12-28T04:56:27.875Z,80.14
2017-12-28T04:57:27.837Z,79.57
2017-12-28T04:58:27.794Z,79.85
2017-12-28T04:59:27.753Z,78.43
2017-12-28T05:00:27.712Z,78.62
2017-12-28T05:01:27.673Z,77.58
2017-12-28T05:02:27.636Z,78.62
2017-12-28T05:03:27.601Z,76.06
2017-12-28T05:04:27.549Z,74.54
2017-12-28T05:05:27.510Z,74.54
2017-12-28T05:06:27.476Z,75.02
2017-12-28T05:07:27.428Z,75.02
2017-12-28T05:08:27.388Z,73.50
2017-12-28T05:09:27.346Z,70.18
2017-12-28T05:10:27.305Z,71.32
2017-12-28T05:11:27.263Z,67.90
2017-12-28T05:12:27.220Z,68.57
2017-12-28T05:13:27.180Z,67.90
2017-12-28T05:14:27.142Z,65.63
2017-12-28T05:15:27.107Z,66.58
2017-12-28T05:16:27.101Z,69.13
2017-12-28T05:17:27.017Z,68.29
2017-12-28T05:18:26.980Z,64.30
2017-12-28T05:19:26.942Z,65.06
2017-12-28T05:20:26.896Z,62.88
2017-12-28T05:21:26.857Z,65.06
2017-12-28T05:22:26.815Z,63.35
2017-12-28T05:23:26.772Z,62.88
2017-12-28T05:24:26.733Z,62.02
2017-12-28T05:25:26.715Z,62.12
2017-12-28T05:26:26.651Z,61.36
2017-12-28T05:27:26.610Z,62.59
2017-12-28T05:28:26.578Z,61.55
2017-12-28T05:29:26.532Z,61.65
2017-12-28T05:30:26.491Z,60.41
2017-12-28T05:31:26.476Z,61.55
2017-12-28T05:32:26.407Z,60.60
2017-12-28T05:33:26.365Z,61.83
2017-12-28T05:34:26.330Z,65.34
2017-12-28T05:35:26.283Z,62.97
2017-12-28T05:36:26.243Z,64.30
2017-12-28T05:37:26.203Z,64.49
2017-12-28T05:38:26.161Z,63.35
2017-12-28T05:39:26.122Z,61.83
2017-12-28T05:40:26.081Z,63.82
2017-12-28T05:41:26.049Z,64.20
2017-12-28T05:42:26.006Z,64.20
2017-12-28T05:43:25.958Z,63.73
2017-12-28T05:44:25.917Z,62.97
2017-12-28T05:45:25.879Z,64.71
2017-12-28T05:46:25.840Z,67.24
2017-12-28T05:47:25.801Z,65.72
2017-12-28T05:48:25.772Z,65.85
2017-12-28T05:49:25.715Z,66.42
2017-12-28T05:50:25.674Z,66.39
2017-12-28T05:51:25.634Z,67.81
2017-12-28T05:52:25.598Z,68.00
2017-12-28T05:53:25.552Z,65.56
2017-12-28T05:54:25.517Z,65.75
2017-12-28T05:55:25.475Z,69.80
2017-12-28T05:56:25.428Z,66.10
2017-12-28T05:57:25.388Z,66.10
2017-12-28T05:58:25.348Z,66.10
2017-12-28T05:59:25.310Z,63.67
2017-12-28T06:00:25.271Z,63.76
2017-12-28T06:01:25.228Z,63.86
2017-12-28T06:02:25.184Z,64.71
2017-12-28T06:03:25.145Z,66.48
2017-12-28T06:04:25.103Z,67.90
2017-12-28T06:05:25.064Z,66.14
2017-12-28T06:06:25.023Z,66.86
2017-12-28T06:07:24.987Z,66.99
2017-12-28T06:08:24.943Z,67.81
2017-12-28T06:09:24.903Z,66.61
2017-12-28T06:10:24.858Z,67.37
2017-12-28T06:11:24.827Z,67.85
2017-12-28T06:12:24.778Z,68.51
2017-12-28T06:13:24.740Z,66.04
2017-12-28T06:14:24.696Z,67.08
2017-12-28T06:15:24.657Z,65.95
2017-12-28T06:16:24.616Z,68.32
2017-12-28T06:17:24.576Z,66.86
2017-12-28T06:18:24.535Z,66.99
2017-12-28T06:19:24.495Z,66.99
2017-12-28T06:20:24.459Z,66.99
2017-12-28T06:21:24.410Z,68.13
2017-12-28T06:22:24.374Z,68.85
2017-12-28T06:23:24.332Z,71.45
2017-12-28T06:24:24.291Z,69.74
2017-12-28T06:25:24.251Z,71.73
2017-12-28T06:26:24.210Z,72.02
2017-12-28T06:27:24.167Z,71.98
2017-12-28T06:28:24.133Z,68.79
2017-12-28T06:29:24.089Z,69.99
2017-12-28T06:30:24.047Z,68.10
2017-12-28T06:31:24.012Z,68.13
2017-12-28T06:32:23.970Z,68.13
2017-12-28T06:33:23.927Z,68.04
2017-12-28T06:34:23.885Z,66.20
2017-12-28T06:35:23.844Z,68.00
2017-12-28T06:36:23.809Z,70.84
2017-12-28T06:37:23.765Z,68.10
2017-12-28T06:38:23.725Z,68.23
2017-12-28T06:39:23.683Z,66.10
2017-12-28T06:40:23.642Z,68.48
2017-12-28T06:41:23.603Z,69.42
2017-12-28T06:42:23.560Z,69.04
2017-12-28T06:43:23.521Z,70.18
2017-12-28T06:44:23.480Z,67.81
2017-12-28T06:45:23.440Z,66.96
2017-12-28T06:46:23.399Z,69.52
2017-12-28T06:47:23.360Z,70.37
2017-12-28T06:48:23.326Z,70.84
2017-12-28T06:49:23.275Z,70.84
2017-12-28T06:50:23.233Z,70.94
2017-12-28T06:51:23.192Z,71.51
2017-12-28T06:52:23.159Z,70.37
2017-12-28T06:53:23.116Z,68.76
2017-12-28T06:54:23.071Z,67.62
2017-12-28T06:55:23.029Z,67.90
2017-12-28T06:56:22.991Z,69.13
2017-12-28T06:57:22.948Z,68.57
2017-12-28T06:58:22.907Z,68.38
2017-12-28T06:59:22.868Z,66.86
2017-12-28T07:00:22.846Z,66.48
2017-12-28T07:01:22.785Z,66.10
2017-12-28T07:02:22.744Z,67.05
2017-12-28T07:03:22.705Z,68.38
2017-12-28T07:04:22.664Z,68.19
2017-12-28T07:05:22.627Z,69.52
2017-12-28T07:06:22.579Z,68.48
2017-12-28T07:07:22.541Z,69.52
2017-12-28T07:08:22.503Z,68.66
2017-12-28T07:09:22.460Z,67.71
2017-12-28T07:10:22.418Z,68.95
2017-12-28T07:11:22.376Z,67.71
2017-12-28T07:12:22.340Z,67.24
2017-12-28T07:13:22.295Z,68.29
2017-12-28T07:14:22.257Z,67.71
2017-12-28T07:15:22.213Z,69.33
2017-12-28T07:16:22.173Z,69.99
2017-12-28T07:17:22.133Z,70.28
2017-12-28T07:18:22.090Z,70.56
2017-12-28T07:19:22.051Z,70.56
2017-12-28T07:20:22.010Z,71.32
2017-12-28T07:21:21.969Z,70.84
2017-12-28T07:22:21.929Z,70.37
2017-12-28T07:23:21.885Z,70.28
2017-12-28T07:24:21.853Z,69.90
2017-12-28T07:25:21.811Z,69.99
2017-12-28T07:26:21.780Z,69.52
2017-12-28T07:27:21.729Z,68.19
2017-12-28T07:28:21.681Z,69.04
2017-12-28T07:29:21.642Z,69.42
2017-12-28T07:30:21.600Z,68.48
2017-12-28T07:31:21.570Z,68.95
2017-12-28T07:32:21.517Z,69.99
2017-12-28T07:33:21.477Z,69.61
2017-12-28T07:34:21.436Z,69.99
2017-12-28T07:35:21.397Z,69.33
2017-12-28T07:36:21.366Z,69.13
2017-12-28T07:37:21.312Z,69.42
2017-12-28T07:38:21.280Z,69.23
2017-12-28T07:39:21.232Z,70.09
2017-12-28T07:40:21.190Z,69.61
2017-12-28T07:41:21.180Z,68.95
2017-12-28T07:42:21.112Z,69.42
2017-12-28T07:43:21.068Z,69.33
2017-12-28T07:44:21.055Z,69.33
2017-12-28T07:45:20.989Z,68.95
2017-12-28T07:46:20.973Z,68.19
2017-12-28T07:47:20.904Z,69.04
2017-12-28T07:48:20.864Z,69.04
2017-12-28T07:49:20.822Z,69.23
2017-12-28T07:50:20.782Z,69.42
2017-12-28T07:51:20.741Z,68.10
2017-12-28T07:52:20.700Z,69.13
2017-12-28T07:53:20.659Z,67.52
2017-12-28T07:54:20.621Z,68.19
2017-12-28T07:55:20.588Z,66.96
2017-12-28T07:56:20.541Z,67.43
2017-12-28T07:57:20.507Z,66.10
2017-12-28T07:58:20.472Z,67.52
2017-12-28T07:59:20.417Z,67.14
2017-12-28T08:00:20.378Z,67.43
2017-12-28T08:01:20.333Z,68.38
2017-12-28T08:02:20.290Z,67.71
2017-12-28T08:03:20.284Z,68.29
2017-12-28T08:04:20.213Z,66.58
2017-12-28T08:05:20.168Z,66.96
2017-12-28T08:06:20.141Z,67.05
2017-12-28T08:07:20.087Z,67.81
2017-12-28T08:08:20.048Z,68.57
2017-12-28T08:09:20.013Z,68.57
2017-12-28T08:10:19.965Z,68.66
2017-12-28T08:11:19.951Z,68.85
2017-12-28T08:12:19.900Z,68.57
2017-12-28T08:13:19.842Z,68.38
2017-12-28T08:14:19.800Z,67.90
2017-12-28T08:15:19.777Z,66.58
2017-12-28T08:16:19.738Z,67.14
2017-12-28T08:17:19.691Z,67.05
2017-12-28T08:18:19.637Z,67.05
2017-12-28T08:19:19.596Z,66.96
2017-12-28T08:20:19.566Z,67.14
2017-12-28T08:21:19.515Z,67.71
2017-12-28T08:22:19.475Z,67.24
2017-12-28T08:23:19.435Z,68.19
2017-12-28T08:24:19.402Z,69.04
2017-12-28T08:25:19.364Z,68.76
2017-12-28T08:26:19.316Z,69.52
2017-12-28T08:27:19.273Z,68.66
2017-12-28T08:28:19.234Z,69.04
2017-12-28T08:29:19.194Z,69.04
2017-12-28T08:30:19.149Z,69.61
2017-12-28T08:31:19.108Z,70.21
2017-12-28T08:32:19.074Z,71.70
2017-12-28T08:33:19.029Z,71.36
2017-12-28T08:34:18.986Z,70.28
2017-12-28T08:35:18.947Z,70.28
2017-12-28T08:36:18.913Z,68.85
2017-12-28T08:37:18.864Z,68.48
2017-12-28T08:38:18.837Z,68.66
2017-12-28T08:39:18.781Z,69.61
2017-12-28T08:40:18.742Z,69.61
2017-12-28T08:41:18.702Z,69.99
2017-12-28T08:42:18.670Z,70.18
2017-12-28T08:43:18.618Z,71.22
2017-12-28T08:44:18.590Z,70.28
2017-12-28T08:45:18.545Z,71.22
2017-12-28T08:46:18.505Z,71.60
2017-12-28T08:47:18.466Z,73.79
2017-12-28T08:48:18.416Z,73.41
2017-12-28T08:49:18.378Z,72.17
2017-12-28T08:50:18.331Z,72.55
2017-12-28T08:51:18.293Z,72.64
2017-12-28T08:52:18.250Z,71.98
2017-12-28T08:53:18.225Z,72.08
2017-12-28T08:54:18.168Z,72.17
2017-12-28T08:55:18.130Z,73.12
2017-12-28T08:56:18.086Z,72.84
2017-12-28T08:57:18.050Z,73.22
2017-12-28T08:58:18.017Z,73.41
2017-12-28T08:59:17.965Z,75.02
2017-12-28T09:00:17.929Z,73.03
2017-12-28T09:01:17.883Z,73.79
2017-12-28T09:02:17.844Z,74.92
2017-12-28T09:03:17.801Z,74.07
2017-12-28T09:04:17.761Z,74.73
2017-12-28T09:05:17.723Z,73.60
2017-12-28T09:06:17.680Z,72.84
2017-12-28T09:07:17.637Z,73.31
2017-12-28T09:08:17.598Z,74.16
2017-12-28T09:09:17.576Z,75.31
2017-12-28T09:10:17.513Z,74.07
2017-12-28T09:11:17.475Z,75.02
2017-12-28T09:12:17.434Z,75.21
2017-12-28T09:13:17.400Z,75.02
2017-12-28T09:14:17.353Z,74.16
2017-12-28T09:15:17.315Z,73.88
2017-12-28T09:16:17.275Z,72.84
2017-12-28T09:17:17.229Z,74.35
2017-12-28T09:18:17.194Z,73.31
2017-12-28T09:19:17.185Z,73.60
2017-12-28T09:20:17.109Z,74.26
2017-12-28T09:21:17.077Z,73.50
2017-12-28T09:22:17.025Z,74.26
2017-12-28T09:23:17.014Z,73.50
2017-12-28T09:24:16.952Z,72.08
2017-12-28T09:25:16.914Z,73.03
2017-12-28T09:26:16.868Z,74.16
2017-12-28T09:27:16.841Z,72.55
2017-12-28T09:28:16.782Z,71.13
2017-12-28T09:29:16.740Z,71.98
2017-12-28T09:30:16.699Z,72.64
2017-12-28T09:31:16.658Z,72.17
2017-12-28T09:32:16.621Z,71.80
2017-12-28T09:33:16.578Z,71.80
2017-12-28T09:34:16.536Z,73.50
2017-12-28T09:35:16.495Z,74.45
2017-12-28T09:36:16.453Z,74.07
2017-12-28T09:37:16.411Z,75.59
2017-12-28T09:38:16.371Z,74.73
2017-12-28T09:39:16.339Z,74.64
2017-12-28T09:40:16.289Z,73.97
2017-12-28T09:41:16.256Z,74.64
2017-12-28T09:42:16.206Z,73.12
2017-12-28T09:43:16.165Z,72.84
2017-12-28T09:44:16.159Z,72.84
2017-12-28T09:45:16.096Z,73.12
2017-12-28T09:46:16.043Z,74.45
2017-12-28T09:47:16.003Z,74.83
2017-12-28T09:48:15.960Z,76.25
2017-12-28T09:49:15.921Z,75.91
2017-12-28T09:50:15.886Z,74.26
2017-12-28T09:51:15.837Z,73.69
2017-12-28T09:52:15.805Z,74.07
2017-12-28T09:53:15.755Z,73.97
2017-12-28T09:54:15.728Z,74.16
2017-12-28T09:55:15.677Z,72.74
2017-12-28T09:56:15.636Z,73.22
2017-12-28T09:57:15.594Z,72.45
2017-12-28T09:58:15.550Z,73.41
2017-12-28T09:59:15.517Z,73.60
2017-12-28T10:00:15.478Z,72.17
2017-12-28T10:01:15.431Z,72.45
2017-12-28T10:02:15.387Z,72.36
2017-12-28T10:03:15.354Z,72.55
2017-12-28T10:04:15.308Z,71.41
2017-12-28T10:05:15.267Z,71.51
2017-12-28T10:06:15.227Z,72.17
2017-12-28T10:07:15.193Z,72.55
2017-12-28T10:08:15.206Z,72.84
2017-12-28T10:09:15.127Z,74.07
2017-12-28T10:10:15.059Z,74.26
2017-12-28T10:11:15.056Z,74.16
2017-12-28T10:12:14.980Z,73.60
2017-12-28T10:13:14.940Z,72.55
2017-12-28T10:14:14.897Z,73.31
2017-12-28T10:15:14.858Z,73.69
2017-12-28T10:16:14.874Z,75.40
2017-12-28T10:17:14.777Z,75.49
2017-12-28T10:18:14.733Z,75.59
2017-12-28T10:19:14.725Z,74.73
2017-12-28T10:20:14.657Z,73.69
2017-12-28T10:21:14.631Z,75.31
2017-12-28T10:22:14.627Z,74.73
2017-12-28T10:23:14.530Z,73.79
2017-12-28T10:24:14.497Z,74.83
2017-12-28T10:25:14.452Z,74.07
2017-12-28T10:26:14.408Z,75.02
2017-12-28T10:27:14.366Z,73.88
2017-12-28T10:28:14.339Z,73.41
2017-12-28T10:29:14.293Z,73.97
2017-12-28T10:30:14.240Z,72.55
2017-12-28T10:31:14.207Z,73.03
2017-12-28T10:32:14.160Z,72.45
2017-12-28T10:33:14.137Z,74.73
2017-12-28T10:34:14.083Z,74.16
2017-12-28T10:35:14.054Z,74.73
2017-12-28T10:36:14.004Z,75.59
2017-12-28T10:37:13.955Z,76.15
2017-12-28T10:38:13.923Z,75.96
2017-12-28T10:39:13.873Z,75.59
2017-12-28T10:40:13.840Z,76.54
2017-12-28T10:41:13.789Z,75.02
2017-12-28T10:42:13.748Z,75.02
2017-12-28T10:43:13.710Z,77.01
2017-12-28T10:44:13.676Z,76.82
2017-12-28T10:45:13.628Z,77.20
2017-12-28T10:46:13.587Z,76.54
2017-12-28T10:47:13.558Z,75.87
2017-12-28T10:48:13.509Z,76.34
2017-12-28T10:49:13.468Z,76.34
2017-12-28T10:50:13.422Z,76.34
2017-12-28T10:51:13.380Z,74.73
2017-12-28T10:52:13.342Z,74.54
2017-12-28T10:53:13.302Z,75.02
2017-12-28T10:54:13.263Z,75.59
2017-12-28T10:55:13.215Z,76.25
2017-12-28T10:56:13.175Z,75.96
2017-12-28T10:57:13.135Z,75.68
2017-12-28T10:58:13.098Z,77.01
2017-12-28T10:59:13.050Z,77.33
2017-12-28T11:00:13.010Z,78.56
2017-12-28T11:01:12.970Z,77.48
2017-12-28T11:02:12.940Z,76.82
2017-12-28T11:03:12.889Z,76.44
2017-12-28T11:04:12.850Z,75.68
2017-12-28T11:05:12.804Z,74.92
2017-12-28T11:06:12.764Z,74.35
2017-12-28T11:07:12.725Z,77.39
2017-12-28T11:08:12.700Z,76.25
2017-12-28T11:09:12.649Z,75.68
2017-12-28T11:10:12.620Z,76.73
2017-12-28T11:11:12.576Z,75.59
2017-12-28T11:12:12.529Z,76.15
2017-12-28T11:13:12.480Z,75.40
2017-12-28T11:14:12.438Z,77.67
2017-12-28T11:15:12.401Z,76.34
2017-12-28T11:16:12.355Z,76.44
2017-12-28T11:17:12.315Z,78.05
2017-12-28T11:18:12.272Z,78.75
2017-12-28T11:19:12.232Z,79.14
2017-12-28T11:20:12.189Z,78.62
2017-12-28T11:21:12.149Z,77.29
2017-12-28T11:22:12.109Z,79.10
2017-12-28T11:23:12.069Z,77.62
2017-12-28T11:24:12.044Z,76.73
2017-12-28T11:25:11.982Z,76.82
2017-12-28T11:26:11.949Z,75.49
2017-12-28T11:27:11.911Z,76.34
2017-12-28T11:28:11.860Z,78.19
2017-12-28T11:29:11.824Z,78.75
2017-12-28T11:30:11.786Z,77.48
2017-12-28T11:31:11.738Z,78.28
2017-12-28T11:32:11.703Z,77.24
2017-12-28T11:33:11.668Z,78.47
2017-12-28T11:34:11.616Z,78.19
2017-12-28T11:35:11.575Z,76.15
2017-12-28T11:36:11.534Z,76.67
2017-12-28T11:37:11.495Z,77.62
2017-12-28T11:38:11.453Z,76.54
2017-12-28T11:39:11.413Z,76.06
2017-12-28T11:40:11.374Z,74.92
2017-12-28T11:41:11.334Z,74.35
2017-12-28T11:42:11.290Z,74.83
2017-12-28T11:43:11.246Z,74.26
2017-12-28T11:44:11.209Z,74.73
2017-12-28T11:45:11.178Z,75.40
2017-12-28T11:46:11.130Z,75.15
2017-12-28T11:47:11.094Z,75.02
2017-12-28T11:48:11.042Z,75.34
2017-12-28T11:49:11.006Z,77.11
2017-12-28T11:50:10.965Z,75.78
2017-12-28T11:51:10.917Z,74.45
2017-12-28T11:52:10.908Z,74.77
2017-12-28T11:53:10.860Z,76.15
2017-12-28T11:54:10.795Z,75.02
2017-12-28T11:55:10.755Z,74.45
2017-12-28T11:56:10.726Z,74.92
2017-12-28T11:57:10.685Z,75.59
2017-12-28T11:58:10.638Z,75.68
2017-12-28T11:59:10.594Z,75.49
2017-12-28T12:00:10.558Z,76.44
2017-12-28T12:01:10.504Z,75.78
2017-12-28T12:02:10.478Z,76.95
2017-12-28T12:03:10.431Z,77.96
2017-12-28T12:04:10.405Z,78.38
2017-12-28T12:05:10.352Z,77.48
2017-12-28T12:06:10.309Z,77.33
2017-12-28T12:07:10.267Z,77.05
2017-12-28T12:08:10.228Z,76.76
2017-12-28T12:09:10.203Z,76.06
2017-12-28T12:10:10.140Z,76.54
2017-12-28T12:11:10.105Z,77.52
2017-12-28T12:12:10.105Z,78.66
2017-12-28T12:13:10.021Z,78.38
2017-12-28T12:14:09.975Z,77.52
2017-12-28T12:15:09.939Z,75.31
2017-12-28T12:16:09.892Z,75.02
2017-12-28T12:17:09.852Z,74.83
2017-12-28T12:18:09.814Z,75.87
2017-12-28T12:19:09.773Z,77.01
2017-12-28T12:20:09.731Z,76.73
2017-12-28T12:21:09.689Z,77.11
2017-12-28T12:22:09.647Z,78.00
2017-12-28T12:23:09.610Z,77.14
2017-12-28T12:24:09.566Z,77.52
2017-12-28T12:25:09.531Z,76.34
2017-12-28T12:26:09.481Z,77.90
2017-12-28T12:27:09.448Z,77.58
2017-12-28T12:28:09.413Z,76.10
2017-12-28T12:29:09.402Z,77.71
2017-12-28T12:30:09.320Z,76.76
2017-12-28T12:31:09.283Z,76.92
2017-12-28T12:32:09.238Z,76.25
2017-12-28T12:33:09.212Z,76.73
2017-12-28T12:34:09.155Z,76.34
2017-12-28T12:35:09.116Z,76.01
2017-12-28T12:36:09.074Z,75.96
2017-12-28T12:37:09.031Z,75.78
2017-12-28T12:38:08.994Z,76.54
2017-12-28T12:39:08.960Z,76.06
2017-12-28T12:40:08.914Z,76.06
2017-12-28T12:41:08.870Z,76.39
2017-12-28T12:42:08.828Z,77.14
2017-12-28T12:43:08.784Z,76.39
2017-12-28T12:44:08.745Z,75.96
2017-12-28T12:45:08.704Z,76.67
2017-12-28T12:46:08.664Z,77.43
2017-12-28T12:47:08.621Z,76.86
2017-12-28T12:48:08.581Z,76.20
2017-12-28T12:49:08.543Z,77.05
2017-12-28T12:50:08.506Z,75.68
2017-12-28T12:51:08.479Z,75.81
2017-12-28T12:52:08.418Z,77.43